sensor_id;sensor_type;location;lat;lon;timestamp;temperature;humidity
51914;DHT22;37940;53.002;6.930;2022-08-11T00:00:11;15.40;99.90
51914;DHT22;37940;53.002;6.930;2022-08-11T00:02:48;15.30;99.90
51914;DHT22;37940;53.002;6.930;2022-08-11T00:05:18;15.30;99.90
51914;DHT22;37940;53.002;6.930;2022-08-11T00:10:19;15.20;99.90
51914;DHT22;37940;53.002;6.930;2022-08-11T00:13:05;15.20;99.90
51914;DHT22;37940;53.002;6.930;2022-08-11T00:15:41;15.20;99.90
51914;DHT22;37940;53.002;6.930;2022-08-11T00:18:08;15.10;99.90
51914;DHT22;37940;53.002;6.930;2022-08-11T00:20:38;15.10;99.90
51914;DHT22;37940;53.002;6.930;2022-08-11T00:23:10;15.10;99.90
51914;DHT22;37940;53.002;6.930;2022-08-11T00:25:47;15.10;99.90
51914;DHT22;37940;53.002;6.930;2022-08-11T00:28:30;15.00;99.90
51914;DHT22;37940;53.002;6.930;2022-08-11T00:30:58;15.00;99.90
51914;DHT22;37940;53.002;6.930;2022-08-11T00:33:35;15.00;99.90
51914;DHT22;37940;53.002;6.930;2022-08-11T00:36:02;15.00;99.90
51914;DHT22;37940;53.002;6.930;2022-08-11T00:38:32;15.00;99.90
51914;DHT22;37940;53.002;6.930;2022-08-11T00:41:09;15.00;99.90
51914;DHT22;37940;53.002;6.930;2022-08-11T00:55:09;14.80;99.90
51914;DHT22;37940;53.002;6.930;2022-08-11T01:40:21;14.40;99.90
51914;DHT22;37940;53.002;6.930;2022-08-11T01:46:09;14.30;99.90
51914;DHT22;37940;53.002;6.930;2022-08-11T01:48:43;14.30;99.90
51914;DHT22;37940;53.002;6.930;2022-08-11T01:51:16;14.30;99.90
51914;DHT22;37940;53.002;6.930;2022-08-11T01:53:44;14.30;99.90
51914;DHT22;37940;53.002;6.930;2022-08-11T01:59:20;14.30;99.90
51914;DHT22;37940;53.002;6.930;2022-08-11T02:02:17;14.30;99.90
51914;DHT22;37940;53.002;6.930;2022-08-11T02:05:16;14.30;99.90
51914;DHT22;37940;53.002;6.930;2022-08-11T02:10:24;14.30;99.90
51914;DHT22;37940;53.002;6.930;2022-08-11T02:13:33;14.30;99.90
51914;DHT22;37940;53.002;6.930;2022-08-11T02:16:32;14.30;99.90
51914;DHT22;37940;53.002;6.930;2022-08-11T02:22:07;14.30;99.90
51914;DHT22;37940;53.002;6.930;2022-08-11T02:25:08;14.30;99.90
51914;DHT22;37940;53.002;6.930;2022-08-11T02:27:47;14.30;99.90
51914;DHT22;37940;53.002;6.930;2022-08-11T02:30:16;14.30;99.90
51914;DHT22;37940;53.002;6.930;2022-08-11T02:44:28;14.20;99.90
51914;DHT22;37940;53.002;6.930;2022-08-11T02:49:55;14.10;99.90
51914;DHT22;37940;53.002;6.930;2022-08-11T02:58:32;14.10;99.90
51914;DHT22;37940;53.002;6.930;2022-08-11T03:01:17;14.00;99.90
51914;DHT22;37940;53.002;6.930;2022-08-11T03:03:52;14.00;99.90
51914;DHT22;37940;53.002;6.930;2022-08-11T03:06:48;14.00;99.90
51914;DHT22;37940;53.002;6.930;2022-08-11T03:09:24;13.90;99.90
51914;DHT22;37940;53.002;6.930;2022-08-11T03:17:56;13.80;99.90
51914;DHT22;37940;53.002;6.930;2022-08-11T03:20:41;13.80;99.90
51914;DHT22;37940;53.002;6.930;2022-08-11T03:28:43;13.80;99.90
51914;DHT22;37940;53.002;6.930;2022-08-11T03:33:45;13.70;99.90
51914;DHT22;37940;53.002;6.930;2022-08-11T03:42:28;13.60;99.90
51914;DHT22;37940;53.002;6.930;2022-08-11T04:13:54;13.50;99.90
51914;DHT22;37940;53.002;6.930;2022-08-11T04:26:33;13.40;99.90
51914;DHT22;37940;53.002;6.930;2022-08-11T04:40:42;13.40;99.90
51914;DHT22;37940;53.002;6.930;2022-08-11T05:10:35;13.80;99.90
51914;DHT22;37940;53.002;6.930;2022-08-11T05:13:09;13.90;99.90
51914;DHT22;37940;53.002;6.930;2022-08-11T05:16:00;13.90;99.90
51914;DHT22;37940;53.002;6.930;2022-08-11T05:18:50;14.00;99.90
51914;DHT22;37940;53.002;6.930;2022-08-11T05:21:36;14.00;99.90
51914;DHT22;37940;53.002;6.930;2022-08-11T05:24:25;14.20;99.90
51914;DHT22;37940;53.002;6.930;2022-08-11T05:27:14;14.40;99.90
51914;DHT22;37940;53.002;6.930;2022-08-11T05:30:05;14.50;99.90
51914;DHT22;37940;53.002;6.930;2022-08-11T05:33:07;14.70;99.90
51914;DHT22;37940;53.002;6.930;2022-08-11T05:36:26;14.90;99.90
51914;DHT22;37940;53.002;6.930;2022-08-11T05:39:04;15.20;99.90
51914;DHT22;37940;53.002;6.930;2022-08-11T05:41:50;15.80;99.90
51914;DHT22;37940;53.002;6.930;2022-08-11T05:44:44;16.70;99.90
51914;DHT22;37940;53.002;6.930;2022-08-11T05:47:28;18.40;99.90
51914;DHT22;37940;53.002;6.930;2022-08-11T05:50:14;19.60;99.90
51914;DHT22;37940;53.002;6.930;2022-08-11T05:53:00;19.80;99.90
51914;DHT22;37940;53.002;6.930;2022-08-11T05:55:46;20.60;99.90
51914;DHT22;37940;53.002;6.930;2022-08-11T05:58:33;21.60;99.90
51914;DHT22;37940;53.002;6.930;2022-08-11T06:01:00;22.30;99.90
51914;DHT22;37940;53.002;6.930;2022-08-11T06:03:28;23.30;99.90
51914;DHT22;37940;53.002;6.930;2022-08-11T06:05:56;24.30;99.90
51914;DHT22;37940;53.002;6.930;2022-08-11T06:08:30;25.00;99.90
51914;DHT22;37940;53.002;6.930;2022-08-11T06:11:03;25.10;99.90
51914;DHT22;37940;53.002;6.930;2022-08-11T06:13:30;24.70;99.90
51914;DHT22;37940;53.002;6.930;2022-08-11T06:15:57;24.50;99.90
51914;DHT22;37940;53.002;6.930;2022-08-11T06:18:23;24.40;99.90
51914;DHT22;37940;53.002;6.930;2022-08-11T06:20:52;24.10;99.90
51914;DHT22;37940;53.002;6.930;2022-08-11T06:23:20;24.40;99.90
51914;DHT22;37940;53.002;6.930;2022-08-11T06:25:51;25.00;99.90
51914;DHT22;37940;53.002;6.930;2022-08-11T06:28:18;25.00;99.90
51914;DHT22;37940;53.002;6.930;2022-08-11T06:30:46;24.40;99.90
51914;DHT22;37940;53.002;6.930;2022-08-11T06:33:47;23.70;99.90
51914;DHT22;37940;53.002;6.930;2022-08-11T06:36:14;23.00;99.90
51914;DHT22;37940;53.002;6.930;2022-08-11T06:42:11;22.40;99.90
51914;DHT22;37940;53.002;6.930;2022-08-11T06:44:41;22.50;99.90
51914;DHT22;37940;53.002;6.930;2022-08-11T06:47:12;22.20;99.90
51914;DHT22;37940;53.002;6.930;2022-08-11T06:49:47;22.00;99.90
51914;DHT22;37940;53.002;6.930;2022-08-11T06:52:34;21.70;99.90
51914;DHT22;37940;53.002;6.930;2022-08-11T06:55:06;21.50;99.90
51914;DHT22;37940;53.002;6.930;2022-08-11T06:57:35;21.40;99.90
51914;DHT22;37940;53.002;6.930;2022-08-11T07:00:20;21.30;99.90
51914;DHT22;37940;53.002;6.930;2022-08-11T07:03:11;21.20;99.90
51914;DHT22;37940;53.002;6.930;2022-08-11T07:05:57;21.20;99.90
51914;DHT22;37940;53.002;6.930;2022-08-11T07:14:51;21.10;99.90
51914;DHT22;37940;53.002;6.930;2022-08-11T07:17:41;21.20;99.90
51914;DHT22;37940;53.002;6.930;2022-08-11T07:20:09;21.10;99.90
51914;DHT22;37940;53.002;6.930;2022-08-11T07:22:58;21.10;99.90
51914;DHT22;37940;53.002;6.930;2022-08-11T07:25:48;21.20;99.90
51914;DHT22;37940;53.002;6.930;2022-08-11T07:28:39;21.20;99.90
51914;DHT22;37940;53.002;6.930;2022-08-11T07:31:36;21.20;99.90
51914;DHT22;37940;53.002;6.930;2022-08-11T07:34:22;21.30;99.90
51914;DHT22;37940;53.002;6.930;2022-08-11T07:36:52;21.30;99.90
51914;DHT22;37940;53.002;6.930;2022-08-11T07:39:26;21.30;99.90
51914;DHT22;37940;53.002;6.930;2022-08-11T07:41:54;21.40;99.90
51914;DHT22;37940;53.002;6.930;2022-08-11T07:44:22;21.50;99.90
51914;DHT22;37940;53.002;6.930;2022-08-11T07:46:51;21.60;99.90
51914;DHT22;37940;53.002;6.930;2022-08-11T07:49:38;21.60;99.90
51914;DHT22;37940;53.002;6.930;2022-08-11T07:52:28;21.70;99.90
51914;DHT22;37940;53.002;6.930;2022-08-11T07:57:32;21.90;99.90
51914;DHT22;37940;53.002;6.930;2022-08-11T08:00:18;22.00;99.90
51914;DHT22;37940;53.002;6.930;2022-08-11T08:03:04;22.10;99.90
51914;DHT22;37940;53.002;6.930;2022-08-11T08:05:50;22.20;99.90
51914;DHT22;37940;53.002;6.930;2022-08-11T08:08:35;22.30;99.90
51914;DHT22;37940;53.002;6.930;2022-08-11T08:11:21;22.50;99.90
51914;DHT22;37940;53.002;6.930;2022-08-11T08:14:07;22.90;99.90
51914;DHT22;37940;53.002;6.930;2022-08-11T08:16:53;23.20;99.90
51914;DHT22;37940;53.002;6.930;2022-08-11T08:19:42;23.40;99.90
51914;DHT22;37940;53.002;6.930;2022-08-11T08:22:10;23.50;99.90
51914;DHT22;37940;53.002;6.930;2022-08-11T08:24:38;23.70;99.90
51914;DHT22;37940;53.002;6.930;2022-08-11T08:27:07;23.80;99.90
51914;DHT22;37940;53.002;6.930;2022-08-11T08:29:35;23.90;99.90
51914;DHT22;37940;53.002;6.930;2022-08-11T08:32:20;24.10;99.90
51914;DHT22;37940;53.002;6.930;2022-08-11T08:34:51;24.40;99.90
51914;DHT22;37940;53.002;6.930;2022-08-11T08:37:20;24.70;99.90
51914;DHT22;37940;53.002;6.930;2022-08-11T08:39:47;24.90;99.90
51914;DHT22;37940;53.002;6.930;2022-08-11T08:42:19;25.10;99.90
51914;DHT22;37940;53.002;6.930;2022-08-11T08:44:50;25.30;99.90
51914;DHT22;37940;53.002;6.930;2022-08-11T08:47:18;25.60;99.90
51914;DHT22;37940;53.002;6.930;2022-08-11T08:49:47;25.70;99.90
51914;DHT22;37940;53.002;6.930;2022-08-11T08:52:18;25.80;99.90
51914;DHT22;37940;53.002;6.930;2022-08-11T08:54:47;26.00;99.90
51914;DHT22;37940;53.002;6.930;2022-08-11T08:57:15;26.20;99.90
51914;DHT22;37940;53.002;6.930;2022-08-11T08:59:44;26.40;99.90
51914;DHT22;37940;53.002;6.930;2022-08-11T09:02:11;26.60;99.90
51914;DHT22;37940;53.002;6.930;2022-08-11T09:04:39;26.70;99.90
51914;DHT22;37940;53.002;6.930;2022-08-11T09:07:11;27.00;99.90
51914;DHT22;37940;53.002;6.930;2022-08-11T09:09:42;27.10;99.90
51914;DHT22;37940;53.002;6.930;2022-08-11T09:12:10;27.30;99.90
51914;DHT22;37940;53.002;6.930;2022-08-11T09:14:38;27.40;99.90
51914;DHT22;37940;53.002;6.930;2022-08-11T09:17:24;27.40;99.90
51914;DHT22;37940;53.002;6.930;2022-08-11T09:19:55;27.60;99.90
51914;DHT22;37940;53.002;6.930;2022-08-11T09:22:34;27.70;99.90
51914;DHT22;37940;53.002;6.930;2022-08-11T09:25:20;27.90;99.10
51914;DHT22;37940;53.002;6.930;2022-08-11T09:28:09;28.00;97.90
51914;DHT22;37940;53.002;6.930;2022-08-11T09:30:36;28.10;97.40
51914;DHT22;37940;53.002;6.930;2022-08-11T09:33:03;28.20;96.50
51914;DHT22;37940;53.002;6.930;2022-08-11T09:35:34;28.30;95.70
51914;DHT22;37940;53.002;6.930;2022-08-11T09:38:03;28.40;94.90
51914;DHT22;37940;53.002;6.930;2022-08-11T09:40:48;28.60;94.50
51914;DHT22;37940;53.002;6.930;2022-08-11T09:43:17;28.70;93.20
51914;DHT22;37940;53.002;6.930;2022-08-11T09:46:03;28.80;92.80
51914;DHT22;37940;53.002;6.930;2022-08-11T09:48:34;28.90;91.60
51914;DHT22;37940;53.002;6.930;2022-08-11T09:51:01;29.00;91.80
51914;DHT22;37940;53.002;6.930;2022-08-11T09:53:32;29.10;91.70
51914;DHT22;37940;53.002;6.930;2022-08-11T09:55:59;29.30;90.60
51914;DHT22;37940;53.002;6.930;2022-08-11T09:58:46;29.30;89.50
51914;DHT22;37940;53.002;6.930;2022-08-11T10:01:12;29.40;90.00
51914;DHT22;37940;53.002;6.930;2022-08-11T10:03:54;29.60;89.30
51914;DHT22;37940;53.002;6.930;2022-08-11T10:06:23;29.80;88.30
51914;DHT22;37940;53.002;6.930;2022-08-11T10:09:07;30.00;88.20
51914;DHT22;37940;53.002;6.930;2022-08-11T10:11:35;30.10;86.40
51914;DHT22;37940;53.002;6.930;2022-08-11T10:14:04;30.20;84.70
51914;DHT22;37940;53.002;6.930;2022-08-11T10:16:50;30.30;84.10
51914;DHT22;37940;53.002;6.930;2022-08-11T10:19:18;30.30;82.60
51914;DHT22;37940;53.002;6.930;2022-08-11T10:21:47;30.30;82.80
51914;DHT22;37940;53.002;6.930;2022-08-11T10:24:35;30.40;81.60
51914;DHT22;37940;53.002;6.930;2022-08-11T10:27:20;30.40;81.70
51914;DHT22;37940;53.002;6.930;2022-08-11T10:29:46;30.50;81.80
51914;DHT22;37940;53.002;6.930;2022-08-11T10:32:31;30.50;80.00
51914;DHT22;37940;53.002;6.930;2022-08-11T10:35:17;30.50;79.00
51914;DHT22;37940;53.002;6.930;2022-08-11T10:37:44;30.50;78.00
51914;DHT22;37940;53.002;6.930;2022-08-11T10:40:17;30.40;77.70
51914;DHT22;37940;53.002;6.930;2022-08-11T10:42:45;30.50;77.50
51914;DHT22;37940;53.002;6.930;2022-08-11T10:45:41;30.50;77.20
51914;DHT22;37940;53.002;6.930;2022-08-11T10:48:34;30.50;75.60
51914;DHT22;37940;53.002;6.930;2022-08-11T10:51:01;30.50;75.70
51914;DHT22;37940;53.002;6.930;2022-08-11T10:53:43;30.50;75.10
51914;DHT22;37940;53.002;6.930;2022-08-11T10:56:34;30.40;75.20
51914;DHT22;37940;53.002;6.930;2022-08-11T10:59:19;30.50;74.30
51914;DHT22;37940;53.002;6.930;2022-08-11T11:01:46;30.60;75.20
51914;DHT22;37940;53.002;6.930;2022-08-11T11:04:38;30.60;74.40
51914;DHT22;37940;53.002;6.930;2022-08-11T11:07:21;30.80;75.20
51914;DHT22;37940;53.002;6.930;2022-08-11T11:09:50;30.80;74.60
51914;DHT22;37940;53.002;6.930;2022-08-11T11:12:41;30.90;73.60
51914;DHT22;37940;53.002;6.930;2022-08-11T11:15:29;31.00;71.90
51914;DHT22;37940;53.002;6.930;2022-08-11T11:18:23;31.00;71.90
51914;DHT22;37940;53.002;6.930;2022-08-11T11:23:24;31.10;70.70
51914;DHT22;37940;53.002;6.930;2022-08-11T11:31:45;31.00;69.80
51914;DHT22;37940;53.002;6.930;2022-08-11T11:37:03;31.00;68.70
51914;DHT22;37940;53.002;6.930;2022-08-11T11:39:31;31.00;69.60
51914;DHT22;37940;53.002;6.930;2022-08-11T11:42:08;30.90;69.20
51914;DHT22;37940;53.002;6.930;2022-08-11T11:44:39;30.90;69.20
51914;DHT22;37940;53.002;6.930;2022-08-11T11:47:09;30.90;69.00
51914;DHT22;37940;53.002;6.930;2022-08-11T11:49:36;30.90;69.90
51914;DHT22;37940;53.002;6.930;2022-08-11T11:52:06;31.00;70.00
51914;DHT22;37940;53.002;6.930;2022-08-11T11:54:33;31.10;71.10
51914;DHT22;37940;53.002;6.930;2022-08-11T11:57:02;31.20;70.20
51914;DHT22;37940;53.002;6.930;2022-08-11T11:59:51;31.30;71.00
51914;DHT22;37940;53.002;6.930;2022-08-11T12:02:36;31.30;69.70
51914;DHT22;37940;53.002;6.930;2022-08-11T12:05:02;31.40;69.40
51914;DHT22;37940;53.002;6.930;2022-08-11T12:07:30;31.50;68.90
51914;DHT22;37940;53.002;6.930;2022-08-11T12:10:15;31.40;69.10
51914;DHT22;37940;53.002;6.930;2022-08-11T12:12:42;31.40;68.70
51914;DHT22;37940;53.002;6.930;2022-08-11T12:15:27;31.30;68.00
51914;DHT22;37940;53.002;6.930;2022-08-11T12:17:54;31.30;66.80
51914;DHT22;37940;53.002;6.930;2022-08-11T12:20:21;31.20;67.30
51914;DHT22;37940;53.002;6.930;2022-08-11T12:22:47;31.30;67.20
51914;DHT22;37940;53.002;6.930;2022-08-11T12:25:34;31.20;66.60
51914;DHT22;37940;53.002;6.930;2022-08-11T12:28:23;31.10;66.20
51914;DHT22;37940;53.002;6.930;2022-08-11T12:30:50;31.00;66.50
51914;DHT22;37940;53.002;6.930;2022-08-11T12:33:18;31.00;65.70
51914;DHT22;37940;53.002;6.930;2022-08-11T12:35:45;30.90;66.80
51914;DHT22;37940;53.002;6.930;2022-08-11T12:38:13;30.90;67.20
51914;DHT22;37940;53.002;6.930;2022-08-11T12:40:41;30.90;66.10
51914;DHT22;37940;53.002;6.930;2022-08-11T12:43:29;31.00;66.50
51914;DHT22;37940;53.002;6.930;2022-08-11T12:46:23;31.00;66.60
51914;DHT22;37940;53.002;6.930;2022-08-11T12:48:57;31.00;66.30
51914;DHT22;37940;53.002;6.930;2022-08-11T12:51:52;31.00;66.30
51914;DHT22;37940;53.002;6.930;2022-08-11T12:57:16;31.20;66.10
51914;DHT22;37940;53.002;6.930;2022-08-11T13:00:04;31.30;65.90
51914;DHT22;37940;53.002;6.930;2022-08-11T13:02:49;31.40;65.70
51914;DHT22;37940;53.002;6.930;2022-08-11T13:05:34;31.40;65.80
51914;DHT22;37940;53.002;6.930;2022-08-11T13:08:01;31.40;65.50
51914;DHT22;37940;53.002;6.930;2022-08-11T13:10:29;31.40;65.10
51914;DHT22;37940;53.002;6.930;2022-08-11T13:13:16;31.30;64.80
51914;DHT22;37940;53.002;6.930;2022-08-11T13:15:44;31.30;64.70
51914;DHT22;37940;53.002;6.930;2022-08-11T13:18:14;31.30;64.90
51914;DHT22;37940;53.002;6.930;2022-08-11T13:20:40;31.40;63.50
51914;DHT22;37940;53.002;6.930;2022-08-11T13:23:09;31.30;62.80
51914;DHT22;37940;53.002;6.930;2022-08-11T13:25:37;31.30;63.20
51914;DHT22;37940;53.002;6.930;2022-08-11T13:28:04;31.30;63.80
51914;DHT22;37940;53.002;6.930;2022-08-11T13:30:31;31.30;63.90
51914;DHT22;37940;53.002;6.930;2022-08-11T13:33:16;31.30;63.60
51914;DHT22;37940;53.002;6.930;2022-08-11T13:35:46;31.40;64.40
51914;DHT22;37940;53.002;6.930;2022-08-11T13:38:16;31.50;64.50
51914;DHT22;37940;53.002;6.930;2022-08-11T13:40:43;31.50;64.50
51914;DHT22;37940;53.002;6.930;2022-08-11T13:43:12;31.40;64.00
51914;DHT22;37940;53.002;6.930;2022-08-11T13:45:38;31.50;64.50
51914;DHT22;37940;53.002;6.930;2022-08-11T13:48:07;31.40;64.00
51914;DHT22;37940;53.002;6.930;2022-08-11T13:50:34;31.40;63.40
51914;DHT22;37940;53.002;6.930;2022-08-11T13:53:24;31.30;63.10
51914;DHT22;37940;53.002;6.930;2022-08-11T13:55:51;31.20;63.30
51914;DHT22;37940;53.002;6.930;2022-08-11T13:58:17;31.20;63.50
51914;DHT22;37940;53.002;6.930;2022-08-11T14:00:48;31.20;63.50
51914;DHT22;37940;53.002;6.930;2022-08-11T14:03:18;31.30;64.30
51914;DHT22;37940;53.002;6.930;2022-08-11T14:05:50;31.30;63.80
51914;DHT22;37940;53.002;6.930;2022-08-11T14:08:20;31.30;64.40
51914;DHT22;37940;53.002;6.930;2022-08-11T14:10:49;31.30;64.60
51914;DHT22;37940;53.002;6.930;2022-08-11T14:13:38;31.20;64.00
51914;DHT22;37940;53.002;6.930;2022-08-11T14:16:14;31.20;63.80
51914;DHT22;37940;53.002;6.930;2022-08-11T14:18:45;31.20;64.00
51914;DHT22;37940;53.002;6.930;2022-08-11T14:21:15;31.10;64.70
51914;DHT22;37940;53.002;6.930;2022-08-11T14:24:16;31.20;64.60
51914;DHT22;37940;53.002;6.930;2022-08-11T14:26:42;31.30;65.30
51914;DHT22;37940;53.002;6.930;2022-08-11T14:29:17;31.20;64.60
51914;DHT22;37940;53.002;6.930;2022-08-11T14:31:52;31.20;64.20
51914;DHT22;37940;53.002;6.930;2022-08-11T14:34:21;31.10;64.80
51914;DHT22;37940;53.002;6.930;2022-08-11T14:36:51;31.10;65.40
51914;DHT22;37940;53.002;6.930;2022-08-11T14:39:20;31.20;64.80
51914;DHT22;37940;53.002;6.930;2022-08-11T14:41:52;31.10;64.60
51914;DHT22;37940;53.002;6.930;2022-08-11T14:44:39;31.10;65.70
51914;DHT22;37940;53.002;6.930;2022-08-11T14:47:24;31.10;65.00
51914;DHT22;37940;53.002;6.930;2022-08-11T14:49:55;31.10;64.60
51914;DHT22;37940;53.002;6.930;2022-08-11T14:52:22;31.10;64.70
51914;DHT22;37940;53.002;6.930;2022-08-11T14:54:51;31.00;64.80
51914;DHT22;37940;53.002;6.930;2022-08-11T14:57:37;31.00;65.30
51914;DHT22;37940;53.002;6.930;2022-08-11T15:00:06;31.00;65.50
51914;DHT22;37940;53.002;6.930;2022-08-11T15:02:36;31.00;65.30
51914;DHT22;37940;53.002;6.930;2022-08-11T15:05:29;31.10;66.10
51914;DHT22;37940;53.002;6.930;2022-08-11T15:07:56;31.00;65.40
51914;DHT22;37940;53.002;6.930;2022-08-11T15:10:23;31.00;65.20
51914;DHT22;37940;53.002;6.930;2022-08-11T15:12:49;31.00;65.50
51914;DHT22;37940;53.002;6.930;2022-08-11T15:15:16;30.90;64.90
51914;DHT22;37940;53.002;6.930;2022-08-11T15:18:04;30.80;64.40
51914;DHT22;37940;53.002;6.930;2022-08-11T15:20:31;30.80;65.00
51914;DHT22;37940;53.002;6.930;2022-08-11T15:23:16;30.80;64.90
51914;DHT22;37940;53.002;6.930;2022-08-11T15:26:10;30.80;64.70
51914;DHT22;37940;53.002;6.930;2022-08-11T15:28:47;30.80;65.20
51914;DHT22;37940;53.002;6.930;2022-08-11T15:31:33;30.70;64.40
51914;DHT22;37940;53.002;6.930;2022-08-11T15:34:21;30.60;64.60
51914;DHT22;37940;53.002;6.930;2022-08-11T15:37:08;30.50;64.70
51914;DHT22;37940;53.002;6.930;2022-08-11T15:39:56;30.50;64.80
51914;DHT22;37940;53.002;6.930;2022-08-11T15:43:10;30.50;64.80
51914;DHT22;37940;53.002;6.930;2022-08-11T15:46:00;30.30;64.60
51914;DHT22;37940;53.002;6.930;2022-08-11T15:51:09;30.20;66.70
51914;DHT22;37940;53.002;6.930;2022-08-11T15:53:48;30.30;65.70
51914;DHT22;37940;53.002;6.930;2022-08-11T15:56:15;30.30;66.90
51914;DHT22;37940;53.002;6.930;2022-08-11T15:58:45;30.40;65.70
51914;DHT22;37940;53.002;6.930;2022-08-11T16:01:30;30.30;65.20
51914;DHT22;37940;53.002;6.930;2022-08-11T16:04:19;30.30;65.20
51914;DHT22;37940;53.002;6.930;2022-08-11T16:09:43;30.20;64.90
51914;DHT22;37940;53.002;6.930;2022-08-11T16:12:12;30.10;65.40
51914;DHT22;37940;53.002;6.930;2022-08-11T16:14:44;29.90;65.70
51914;DHT22;37940;53.002;6.930;2022-08-11T16:17:37;29.90;65.70
51914;DHT22;37940;53.002;6.930;2022-08-11T16:20:07;29.80;65.60
51914;DHT22;37940;53.002;6.930;2022-08-11T16:22:34;29.70;65.10
51914;DHT22;37940;53.002;6.930;2022-08-11T16:25:17;29.70;64.90
51914;DHT22;37940;53.002;6.930;2022-08-11T16:27:55;29.60;66.10
51914;DHT22;37940;53.002;6.930;2022-08-11T16:30:25;29.50;65.40
51914;DHT22;37940;53.002;6.930;2022-08-11T16:32:52;29.40;65.80
51914;DHT22;37940;53.002;6.930;2022-08-11T16:35:22;29.30;66.00
51914;DHT22;37940;53.002;6.930;2022-08-11T16:38:07;29.30;66.30
51914;DHT22;37940;53.002;6.930;2022-08-11T16:40:54;29.20;65.80
51914;DHT22;37940;53.002;6.930;2022-08-11T16:43:23;29.10;65.50
51914;DHT22;37940;53.002;6.930;2022-08-11T16:46:09;29.00;65.60
51914;DHT22;37940;53.002;6.930;2022-08-11T16:48:56;28.90;65.90
51914;DHT22;37940;53.002;6.930;2022-08-11T16:51:23;28.80;66.80
51914;DHT22;37940;53.002;6.930;2022-08-11T16:53:49;28.80;67.20
51914;DHT22;37940;53.002;6.930;2022-08-11T16:56:18;28.70;67.30
51914;DHT22;37940;53.002;6.930;2022-08-11T16:58:49;28.60;67.20
51914;DHT22;37940;53.002;6.930;2022-08-11T17:01:35;28.50;67.60
51914;DHT22;37940;53.002;6.930;2022-08-11T17:04:20;28.40;67.70
51914;DHT22;37940;53.002;6.930;2022-08-11T17:07:07;28.30;67.80
51914;DHT22;37940;53.002;6.930;2022-08-11T17:09:53;28.20;68.10
51914;DHT22;37940;53.002;6.930;2022-08-11T17:12:39;28.20;68.80
51914;DHT22;37940;53.002;6.930;2022-08-11T17:15:25;28.10;69.10
51914;DHT22;37940;53.002;6.930;2022-08-11T17:18:13;28.00;69.00
51914;DHT22;37940;53.002;6.930;2022-08-11T17:21:00;28.00;69.50
51914;DHT22;37940;53.002;6.930;2022-08-11T17:23:27;27.90;69.60
51914;DHT22;37940;53.002;6.930;2022-08-11T17:26:27;27.80;69.60
51914;DHT22;37940;53.002;6.930;2022-08-11T17:29:14;27.80;69.80
51914;DHT22;37940;53.002;6.930;2022-08-11T17:31:41;27.70;70.20
51914;DHT22;37940;53.002;6.930;2022-08-11T17:34:26;27.70;70.60
51914;DHT22;37940;53.002;6.930;2022-08-11T17:37:13;27.60;70.70
51914;DHT22;37940;53.002;6.930;2022-08-11T17:39:39;27.60;71.20
51914;DHT22;37940;53.002;6.930;2022-08-11T17:42:06;27.60;71.80
51914;DHT22;37940;53.002;6.930;2022-08-11T17:44:52;27.50;71.80
51914;DHT22;37940;53.002;6.930;2022-08-11T17:47:38;27.50;72.10
51914;DHT22;37940;53.002;6.930;2022-08-11T17:50:24;27.40;72.50
51914;DHT22;37940;53.002;6.930;2022-08-11T17:52:51;27.40;73.10
51914;DHT22;37940;53.002;6.930;2022-08-11T17:55:37;27.30;74.10
51914;DHT22;37940;53.002;6.930;2022-08-11T17:58:24;27.20;73.90
51914;DHT22;37940;53.002;6.930;2022-08-11T18:01:10;27.20;74.30
51914;DHT22;37940;53.002;6.930;2022-08-11T18:03:37;27.10;74.40
51914;DHT22;37940;53.002;6.930;2022-08-11T18:06:07;27.10;74.80
51914;DHT22;37940;53.002;6.930;2022-08-11T18:08:36;27.00;74.90
51914;DHT22;37940;53.002;6.930;2022-08-11T18:11:23;26.90;75.10
51914;DHT22;37940;53.002;6.930;2022-08-11T18:14:09;26.80;75.30
51914;DHT22;37940;53.002;6.930;2022-08-11T18:16:54;26.70;75.90
51914;DHT22;37940;53.002;6.930;2022-08-11T18:19:38;26.60;76.30
51914;DHT22;37940;53.002;6.930;2022-08-11T18:22:27;26.50;76.40
51914;DHT22;37940;53.002;6.930;2022-08-11T18:25:15;26.40;77.00
51914;DHT22;37940;53.002;6.930;2022-08-11T18:28:00;26.30;77.30
51914;DHT22;37940;53.002;6.930;2022-08-11T18:30:50;26.20;78.40
51914;DHT22;37940;53.002;6.930;2022-08-11T18:33:40;26.00;77.80
51914;DHT22;37940;53.002;6.930;2022-08-11T18:36:30;25.90;77.80
51914;DHT22;37940;53.002;6.930;2022-08-11T18:39:14;25.90;78.50
51914;DHT22;37940;53.002;6.930;2022-08-11T18:42:06;25.70;78.70
51914;DHT22;37940;53.002;6.930;2022-08-11T18:44:54;25.60;79.00
51914;DHT22;37940;53.002;6.930;2022-08-11T18:47:38;25.50;79.20
51914;DHT22;37940;53.002;6.930;2022-08-11T18:50:24;25.40;79.80
51914;DHT22;37940;53.002;6.930;2022-08-11T18:53:09;25.20;80.40
51914;DHT22;37940;53.002;6.930;2022-08-11T18:55:56;25.10;81.30
51914;DHT22;37940;53.002;6.930;2022-08-11T18:58:43;24.90;81.70
51914;DHT22;37940;53.002;6.930;2022-08-11T19:01:30;24.80;82.30
51914;DHT22;37940;53.002;6.930;2022-08-11T19:04:16;24.70;83.20
51914;DHT22;37940;53.002;6.930;2022-08-11T19:07:02;24.50;83.70
51914;DHT22;37940;53.002;6.930;2022-08-11T19:09:48;24.40;84.70
51914;DHT22;37940;53.002;6.930;2022-08-11T19:12:38;24.20;85.70
51914;DHT22;37940;53.002;6.930;2022-08-11T19:15:24;24.10;86.50
51914;DHT22;37940;53.002;6.930;2022-08-11T19:18:18;23.90;87.30
51914;DHT22;37940;53.002;6.930;2022-08-11T19:21:04;23.80;88.80
51914;DHT22;37940;53.002;6.930;2022-08-11T19:23:53;23.60;89.40
51914;DHT22;37940;53.002;6.930;2022-08-11T19:26:38;23.40;90.30
51914;DHT22;37940;53.002;6.930;2022-08-11T19:29:25;23.30;90.90
51914;DHT22;37940;53.002;6.930;2022-08-11T19:32:12;23.10;91.30
51914;DHT22;37940;53.002;6.930;2022-08-11T19:34:59;23.00;91.70
51914;DHT22;37940;53.002;6.930;2022-08-11T19:37:44;22.80;92.20
51914;DHT22;37940;53.002;6.930;2022-08-11T19:40:30;22.70;92.60
51914;DHT22;37940;53.002;6.930;2022-08-11T19:43:16;22.60;93.20
51914;DHT22;37940;53.002;6.930;2022-08-11T19:46:02;22.50;93.70
51914;DHT22;37940;53.002;6.930;2022-08-11T19:48:52;22.40;94.20
51914;DHT22;37940;53.002;6.930;2022-08-11T19:51:38;22.20;94.70
51914;DHT22;37940;53.002;6.930;2022-08-11T19:54:25;22.10;95.20
51914;DHT22;37940;53.002;6.930;2022-08-11T19:57:10;22.00;95.80
51914;DHT22;37940;53.002;6.930;2022-08-11T19:59:55;21.90;96.40
51914;DHT22;37940;53.002;6.930;2022-08-11T20:02:39;21.80;96.90
51914;DHT22;37940;53.002;6.930;2022-08-11T20:05:24;21.60;97.60
51914;DHT22;37940;53.002;6.930;2022-08-11T20:08:08;21.50;98.40
51914;DHT22;37940;53.002;6.930;2022-08-11T20:10:54;21.40;99.10
51914;DHT22;37940;53.002;6.930;2022-08-11T20:13:40;21.30;99.90
51914;DHT22;37940;53.002;6.930;2022-08-11T20:16:41;21.10;99.90